Time;durP1;ratioP1;P1;durP2;ratioP2;P2;SDS_P1;SDS_P2;PMS_P1;PMS_P2;Temp;Humidity;BMP_temperature;BMP_pressure;BME280_temperature;BME280_humidity;BME280_pressure;Samples;Min_cycle;Max_cycle;Signal;HPM_P1;HPM_P2
2023/04/04 00:01:43;;;;;;;2.42;0.95;;;;;;;;;;4975386;28;20052;-75
2023/04/04 00:04:10;;;;;;;2.78;0.93;;;;;;;;;;5029879;28;20124;-75
2023/04/04 00:06:36;;;;;;;2.25;1.00;;;;;;;;;;5053741;28;20068;-72
2023/04/04 00:09:03;;;;;;;2.65;1.08;;;;;;;;;;5033738;28;20053;-74
2023/04/04 00:11:29;;;;;;;2.05;0.90;;;;;;;;;;5033231;28;20490;-74
2023/04/04 00:13:56;;;;;;;3.05;1.00;;;;;;;;;;5065677;28;20110;-71
2023/04/04 00:16:22;;;;;;;2.60;1.20;;;;;;;;;;5047772;28;20064;-72
2023/04/04 00:18:50;;;;;;;3.53;1.20;;;;;;;;;;5051335;28;20056;-74
2023/04/04 00:21:17;;;;;;;2.33;0.87;;;;;;;;;;5045781;28;20114;-76
2023/04/04 00:23:43;;;;;;;4.03;1.10;;;;;;;;;;5036503;28;20079;-73
2023/04/04 00:26:10;;;;;;;2.30;1.02;;;;;;;;;;5053289;28;20110;-68
2023/04/04 00:28:37;;;;;;;3.10;1.10;;;;;;;;;;5048417;28;20146;-75
2023/04/04 00:31:03;;;;;;;3.63;1.25;;;;;;;;;;5050900;28;20059;-71
2023/04/04 00:33:30;;;;;;;3.92;1.17;;;;;;;;;;5038224;28;20100;-72
2023/04/04 00:35:58;;;;;;;3.05;1.13;;;;;;;;;;5051282;28;20267;-71
2023/04/04 00:38:25;;;;;;;3.42;1.20;;;;;;;;;;5048550;28;20446;-69
2023/04/04 00:40:51;;;;;;;6.40;1.02;;;;;;;;;;5052359;28;20078;-67
2023/04/04 00:43:18;;;;;;;4.55;1.33;;;;;;;;;;5038778;28;20064;-74
2023/04/04 00:45:46;;;;;;;4.78;1.20;;;;;;;;;;5052118;28;20450;-68
2023/04/04 00:48:13;;;;;;;2.33;1.00;;;;;;;;;;5048935;28;20361;-76
2023/04/04 00:50:39;;;;;;;3.13;1.05;;;;;;;;;;5050387;28;20069;-73
2023/04/04 00:53:07;;;;;;;3.63;1.30;;;;;;;;;;5046355;28;20143;-74
2023/04/04 00:55:37;;;;;;;3.70;1.10;;;;;;;;;;5035423;28;20331;-75
2023/04/04 00:58:04;;;;;;;4.55;1.30;;;;;;;;;;5019881;28;20049;-71
2023/04/04 01:00:31;;;;;;;2.75;1.20;;;;;;;;;;5020101;28;20060;-75
2023/04/04 01:02:57;;;;;;;4.75;1.35;;;;;;;;;;5050861;28;20064;-68
2023/04/04 01:05:24;;;;;;;2.33;1.05;;;;;;;;;;5008427;28;20049;-74
2023/04/04 01:07:51;;;;;;;2.85;1.00;;;;;;;;;;5017840;28;20125;-73
2023/04/04 01:10:19;;;;;;;2.75;1.13;;;;;;;;;;5014749;28;20058;-75
2023/04/04 01:12:46;;;;;;;2.30;1.30;;;;;;;;;;5032692;28;20065;-74
2023/04/04 01:15:14;;;;;;;2.75;1.17;;;;;;;;;;5035958;28;20103;-68
2023/04/04 01:17:42;;;;;;;1.83;1.00;;;;;;;;;;5031092;28;20053;-67
2023/04/04 01:20:12;;;;;;;2.95;1.10;;;;;;;;;;5016030;28;20050;-73
2023/04/04 01:22:39;;;;;;;4.20;1.85;;;;;;;;;;5017475;28;20115;-67
2023/04/04 01:25:06;;;;;;;2.40;1.17;;;;;;;;;;5016234;28;20455;-74
2023/04/04 01:27:34;;;;;;;2.33;1.23;;;;;;;;;;5011813;28;20547;-69
2023/04/04 01:30:02;;;;;;;7.13;1.25;;;;;;;;;;5013426;28;20049;-80
2023/04/04 01:32:31;;;;;;;3.70;1.20;;;;;;;;;;5017604;28;20088;-66
2023/04/04 01:35:02;;;;;;;3.33;1.50;;;;;;;;;;5012942;28;20068;-78
2023/04/04 01:37:33;;;;;;;3.72;1.38;;;;;;;;;;5012439;28;20124;-70
2023/04/04 01:40:04;;;;;;;4.63;1.58;;;;;;;;;;5014945;28;20053;-74
2023/04/04 01:42:30;;;;;;;3.33;1.35;;;;;;;;;;5032276;28;20064;-73
2023/04/04 01:44:58;;;;;;;2.00;1.00;;;;;;;;;;5033414;28;20059;-75
2023/04/04 01:47:25;;;;;;;2.55;1.10;;;;;;;;;;5034104;28;20103;-70
2023/04/04 01:49:52;;;;;;;3.40;1.25;;;;;;;;;;5036181;28;20052;-71
2023/04/04 01:52:19;;;;;;;4.87;1.20;;;;;;;;;;5038498;28;20080;-68
2023/04/04 01:54:45;;;;;;;4.05;1.20;;;;;;;;;;5035199;28;20064;-71
2023/04/04 01:57:12;;;;;;;3.40;1.45;;;;;;;;;;5031516;28;20053;-66
2023/04/04 01:59:38;;;;;;;3.38;1.23;;;;;;;;;;5015014;28;20064;-74
2023/04/04 02:02:06;;;;;;;3.25;1.30;;;;;;;;;;5013600;28;20115;-75
2023/04/04 02:04:34;;;;;;;2.83;1.17;;;;;;;;;;4965561;28;20147;-70
2023/04/04 02:07:00;;;;;;;2.53;1.27;;;;;;;;;;5012817;28;20053;-72
2023/04/04 02:09:26;;;;;;;4.53;1.30;;;;;;;;;;5034674;28;20135;-72
2023/04/04 02:11:53;;;;;;;2.72;1.33;;;;;;;;;;5040551;28;20049;-72
2023/04/04 02:14:20;;;;;;;3.28;1.50;;;;;;;;;;5022247;28;20147;-77
2023/04/04 02:16:46;;;;;;;4.53;1.30;;;;;;;;;;5013240;28;20049;-73
2023/04/04 02:19:14;;;;;;;2.08;1.20;;;;;;;;;;5015641;28;20073;-73
2023/04/04 02:21:41;;;;;;;4.73;1.30;;;;;;;;;;5031594;28;20057;-71
2023/04/04 02:24:08;;;;;;;3.50;1.42;;;;;;;;;;5036222;28;20057;-71
2023/04/04 02:26:34;;;;;;;4.55;1.40;;;;;;;;;;5026808;28;20052;-71
2023/04/04 02:29:01;;;;;;;8.00;1.40;;;;;;;;;;5040660;28;20060;-69
2023/04/04 02:31:28;;;;;;;4.90;1.58;;;;;;;;;;5032905;28;20366;-74
2023/04/04 02:33:54;;;;;;;3.00;1.38;;;;;;;;;;5036820;28;20139;-73
2023/04/04 02:36:22;;;;;;;3.42;1.40;;;;;;;;;;5037064;28;20053;-69
2023/04/04 02:38:49;;;;;;;3.28;1.30;;;;;;;;;;5024315;28;20145;-74
2023/04/04 02:41:15;;;;;;;5.60;1.60;;;;;;;;;;5037841;28;20163;-76
2023/04/04 02:43:42;;;;;;;4.25;1.60;;;;;;;;;;5032379;28;20128;-75
2023/04/04 02:46:08;;;;;;;4.82;1.58;;;;;;;;;;5033985;28;20119;-70
2023/04/04 02:48:35;;;;;;;2.67;1.20;;;;;;;;;;5041294;28;20084;-73
2023/04/04 02:51:01;;;;;;;3.45;1.42;;;;;;;;;;5041230;28;20053;-72
2023/04/04 02:53:29;;;;;;;3.15;1.23;;;;;;;;;;5033375;28;20169;-72
2023/04/04 02:55:56;;;;;;;5.50;1.52;;;;;;;;;;5031303;28;20069;-70
2023/04/04 02:58:23;;;;;;;2.83;1.20;;;;;;;;;;5031499;28;20065;-73
2023/04/04 03:00:53;;;;;;;3.13;1.30;;;;;;;;;;5029341;28;21608;-70
2023/04/04 03:03:20;;;;;;;2.33;1.25;;;;;;;;;;5032552;28;20083;-78
2023/04/04 03:05:48;;;;;;;4.22;1.33;;;;;;;;;;5032762;28;20053;-76
2023/04/04 03:08:14;;;;;;;4.15;1.48;;;;;;;;;;5032246;28;20057;-75
2023/04/04 03:10:42;;;;;;;4.20;1.50;;;;;;;;;;5024065;28;20140;-71
2023/04/04 03:13:09;;;;;;;4.33;1.43;;;;;;;;;;5013368;28;20063;-74
2023/04/04 03:15:35;;;;;;;3.35;1.48;;;;;;;;;;5013835;28;20118;-74
2023/04/04 03:18:02;;;;;;;2.28;1.20;;;;;;;;;;5015524;28;20053;-73
2023/04/04 03:20:30;;;;;;;3.45;1.33;;;;;;;;;;5011513;28;20057;-71
2023/04/04 03:22:57;;;;;;;2.95;1.25;;;;;;;;;;5019799;28;20148;-71
2023/04/04 03:25:23;;;;;;;3.78;1.67;;;;;;;;;;5007968;28;20081;-77
2023/04/04 03:27:52;;;;;;;2.63;1.40;;;;;;;;;;5016191;28;20068;-70
2023/04/04 03:30:18;;;;;;;4.88;1.50;;;;;;;;;;5010712;28;20081;-73
2023/04/04 03:32:45;;;;;;;3.60;1.40;;;;;;;;;;5009243;28;20058;-76
2023/04/04 03:35:11;;;;;;;3.22;1.40;;;;;;;;;;5015590;28;20146;-73
2023/04/04 03:37:39;;;;;;;2.80;1.45;;;;;;;;;;5034348;28;20144;-73
2023/04/04 03:40:06;;;;;;;4.88;1.60;;;;;;;;;;5025426;28;20068;-70
2023/04/04 03:42:33;;;;;;;4.32;1.48;;;;;;;;;;5007614;28;20072;-69
2023/04/04 03:45:01;;;;;;;3.30;1.42;;;;;;;;;;5010371;28;20226;-74
2023/04/04 03:47:28;;;;;;;2.08;1.20;;;;;;;;;;5015761;28;20144;-72
2023/04/04 03:49:55;;;;;;;3.97;1.38;;;;;;;;;;5021188;28;20067;-69
2023/04/04 03:52:21;;;;;;;2.85;1.30;;;;;;;;;;5034361;28;20049;-70
2023/04/04 03:54:48;;;;;;;3.33;1.40;;;;;;;;;;5028002;28;20172;-75
2023/04/04 03:57:15;;;;;;;2.92;1.30;;;;;;;;;;5035551;28;20063;-71
2023/04/04 03:59:42;;;;;;;2.28;1.20;;;;;;;;;;5032900;28;20056;-72
2023/04/04 04:02:09;;;;;;;6.93;1.35;;;;;;;;;;5019327;28;20054;-73
2023/04/04 04:04:36;;;;;;;3.60;1.50;;;;;;;;;;4999056;28;20131;-71
2023/04/04 04:07:02;;;;;;;7.57;1.70;;;;;;;;;;5030495;28;20311;-72
2023/04/04 04:09:29;;;;;;;4.13;1.50;;;;;;;;;;5046267;28;20106;-71
2023/04/04 04:11:55;;;;;;;3.17;1.33;;;;;;;;;;5039892;28;20057;-74
2023/04/04 04:14:22;;;;;;;2.25;1.25;;;;;;;;;;5029555;28;20049;-72
2023/04/04 04:16:48;;;;;;;4.03;1.60;;;;;;;;;;5017016;28;20114;-77
2023/04/04 04:19:17;;;;;;;3.97;1.48;;;;;;;;;;5033042;28;20060;-74
2023/04/04 04:21:44;;;;;;;3.53;1.45;;;;;;;;;;5030629;28;20057;-76
2023/04/04 04:24:10;;;;;;;2.97;1.27;;;;;;;;;;5031876;28;20057;-79
2023/04/04 04:26:37;;;;;;;3.90;1.40;;;;;;;;;;5016096;28;20131;-68
2023/04/04 04:29:03;;;;;;;3.83;1.50;;;;;;;;;;5033537;28;20068;-75
2023/04/04 04:31:30;;;;;;;4.72;1.60;;;;;;;;;;5035864;28;20048;-78
2023/04/04 04:33:56;;;;;;;5.68;2.35;;;;;;;;;;5033876;28;20055;-75
2023/04/04 04:36:25;;;;;;;3.25;1.45;;;;;;;;;;5033518;28;20084;-70
2023/04/04 04:38:51;;;;;;;4.43;1.42;;;;;;;;;;5033371;28;20088;-72
2023/04/04 04:41:18;;;;;;;2.38;1.23;;;;;;;;;;5037464;28;20148;-77
2023/04/04 04:43:44;;;;;;;2.67;1.33;;;;;;;;;;5018343;28;20241;-74
2023/04/04 04:46:11;;;;;;;2.67;1.40;;;;;;;;;;5025363;28;20195;-70
2023/04/04 04:48:38;;;;;;;4.00;1.40;;;;;;;;;;5010111;28;20050;-79
2023/04/04 04:51:04;;;;;;;3.65;1.63;;;;;;;;;;5018189;28;20099;-70
2023/04/04 04:53:32;;;;;;;4.25;1.83;;;;;;;;;;5005632;28;20049;-75
2023/04/04 04:56:00;;;;;;;3.42;1.63;;;;;;;;;;5018811;28;20076;-77
2023/04/04 04:58:27;;;;;;;2.58;1.20;;;;;;;;;;5011200;28;20057;-74
2023/04/04 05:00:54;;;;;;;4.15;1.50;;;;;;;;;;5013371;28;20089;-73
2023/04/04 05:03:21;;;;;;;2.30;1.30;;;;;;;;;;5019982;28;20077;-71
2023/04/04 05:05:57;;;;;;;3.85;1.30;;;;;;;;;;5059208;28;20057;-68
2023/04/04 05:08:32;;;;;;;3.88;1.30;;;;;;;;;;5016469;28;20080;-70
2023/04/04 05:11:02;;;;;;;3.97;1.60;;;;;;;;;;5050356;28;20054;-75
2023/04/04 05:13:28;;;;;;;4.07;1.30;;;;;;;;;;5006509;28;20057;-72
2023/04/04 05:15:58;;;;;;;3.85;1.63;;;;;;;;;;5031535;28;20063;-75
2023/04/04 05:18:31;;;;;;;3.95;1.60;;;;;;;;;;5042382;28;20141;-68
2023/04/04 05:21:00;;;;;;;5.35;1.63;;;;;;;;;;5035545;28;20065;-72
2023/04/04 05:23:27;;;;;;;4.43;1.27;;;;;;;;;;5016844;28;20190;-70
2023/04/04 05:25:58;;;;;;;2.72;1.48;;;;;;;;;;5035403;28;20103;-75
2023/04/04 05:28:26;;;;;;;3.67;1.50;;;;;;;;;;5034805;28;20114;-71
2023/04/04 05:30:52;;;;;;;5.28;2.03;;;;;;;;;;5030189;28;20170;-70
2023/04/04 05:33:25;;;;;;;5.82;1.52;;;;;;;;;;5018655;28;20061;-72
2023/04/04 05:35:53;;;;;;;3.55;1.58;;;;;;;;;;5016287;28;20057;-71
2023/04/04 05:38:22;;;;;;;4.53;2.30;;;;;;;;;;5020647;28;20068;-71
2023/04/04 05:40:49;;;;;;;5.47;1.95;;;;;;;;;;4998590;28;20052;-74
2023/04/04 05:43:18;;;;;;;4.47;1.58;;;;;;;;;;5024923;28;20057;-74
2023/04/04 05:45:49;;;;;;;3.63;1.80;;;;;;;;;;5024487;28;20123;-73
2023/04/04 05:48:17;;;;;;;3.10;1.57;;;;;;;;;;5039986;28;20084;-76
2023/04/04 05:50:49;;;;;;;4.65;1.85;;;;;;;;;;5037843;28;20076;-72
2023/04/04 05:53:16;;;;;;;5.63;1.58;;;;;;;;;;5030511;28;20056;-69
2023/04/04 05:55:43;;;;;;;4.90;1.92;;;;;;;;;;5037859;28;20061;-74
2023/04/04 05:58:11;;;;;;;4.82;1.65;;;;;;;;;;5031128;28;20068;-75
2023/04/04 06:00:38;;;;;;;3.25;1.50;;;;;;;;;;5026372;28;20110;-71
2023/04/04 06:03:06;;;;;;;3.42;1.58;;;;;;;;;;5042188;28;20081;-71
2023/04/04 06:05:33;;;;;;;4.90;1.80;;;;;;;;;;5037660;28;20045;-75
2023/04/04 06:07:59;;;;;;;5.47;1.83;;;;;;;;;;5018702;28;20119;-70
2023/04/04 06:10:29;;;;;;;3.50;1.60;;;;;;;;;;5033916;28;20053;-70
2023/04/04 06:12:57;;;;;;;3.17;1.40;;;;;;;;;;5035513;28;20140;-71
2023/04/04 06:15:28;;;;;;;4.85;1.63;;;;;;;;;;5000737;28;20060;-71
2023/04/04 06:17:55;;;;;;;4.32;1.88;;;;;;;;;;5041638;28;20076;-70
2023/04/04 06:20:26;;;;;;;6.18;1.80;;;;;;;;;;5034331;28;20065;-71
2023/04/04 06:22:53;;;;;;;4.25;1.70;;;;;;;;;;5032984;28;20060;-68
2023/04/04 06:25:19;;;;;;;5.07;2.10;;;;;;;;;;5011752;28;20073;-73
2023/04/04 06:27:46;;;;;;;5.70;1.70;;;;;;;;;;5017595;28;20064;-72
2023/04/04 06:30:15;;;;;;;3.92;1.90;;;;;;;;;;5019089;28;20149;-73
2023/04/04 06:32:52;;;;;;;;;;;;;;;;;;;;;
2023/04/04 06:35:18;;;;;;;4.45;1.80;;;;;;;;;;4995554;28;20053;-68
2023/04/04 06:37:46;;;;;;;4.35;1.80;;;;;;;;;;5016334;28;20140;-70
2023/04/04 06:40:13;;;;;;;5.40;1.90;;;;;;;;;;5049939;28;20044;-65
2023/04/04 06:42:53;;;;;;;3.80;1.75;;;;;;;;;;5026797;28;20178;-70
2023/04/04 06:45:23;;;;;;;7.78;2.10;;;;;;;;;;4997442;28;20061;-71
2023/04/04 06:47:50;;;;;;;5.43;1.70;;;;;;;;;;5015677;28;20058;-69
2023/04/04 06:50:17;;;;;;;6.25;2.35;;;;;;;;;;5029380;28;20084;-72
2023/04/04 06:52:43;;;;;;;4.35;1.70;;;;;;;;;;5014822;28;20068;-71
2023/04/04 06:55:12;;;;;;;5.03;2.30;;;;;;;;;;5042027;28;20062;-66
2023/04/04 06:57:38;;;;;;;3.75;1.58;;;;;;;;;;5024610;28;20067;-73
2023/04/04 07:00:05;;;;;;;4.85;2.08;;;;;;;;;;5036740;28;20053;-74
2023/04/04 07:02:35;;;;;;;6.20;2.00;;;;;;;;;;5028676;28;20187;-69
2023/04/04 07:05:04;;;;;;;3.97;1.92;;;;;;;;;;5034715;28;20057;-72
2023/04/04 07:07:30;;;;;;;;;;;;;;;;;;5038618;28;20063;-74
2023/04/04 07:09:56;;;;;;;4.82;2.00;;;;;;;;;;5043082;28;19939;-71
2023/04/04 07:12:27;;;;;;;4.20;1.80;;;;;;;;;;5039478;28;20050;-72
2023/04/04 07:14:57;;;;;;;4.57;1.98;;;;;;;;;;5024415;28;20060;-68
2023/04/04 07:17:24;;;;;;;7.75;1.60;;;;;;;;;;5019343;28;20144;-70
2023/04/04 07:19:50;;;;;;;7.10;1.92;;;;;;;;;;5016628;28;20060;-74
2023/04/04 07:22:20;;;;;;;7.25;1.80;;;;;;;;;;5019172;28;20140;-67
2023/04/04 07:24:48;;;;;;;3.42;1.67;;;;;;;;;;5005573;28;20053;-74
2023/04/04 07:27:14;;;;;;;3.37;1.73;;;;;;;;;;5011820;28;20062;-72
2023/04/04 07:29:45;;;;;;;5.97;1.80;;;;;;;;;;5014403;28;20311;-69
2023/04/04 07:32:12;;;;;;;4.18;1.90;;;;;;;;;;5022733;28;20045;-67
2023/04/04 07:34:38;;;;;;;6.07;2.00;;;;;;;;;;5003135;28;20090;-68
2023/04/04 07:37:08;;;;;;;5.60;2.03;;;;;;;;;;5028446;28;20076;-71
2023/04/04 07:39:35;;;;;;;3.22;1.45;;;;;;;;;;5035953;28;20114;-70
2023/04/04 07:42:03;;;;;;;4.23;1.70;;;;;;;;;;5029828;28;20053;-73
2023/04/04 07:44:31;;;;;;;5.18;1.70;;;;;;;;;;5017242;28;20303;-72
2023/04/04 07:46:59;;;;;;;3.75;1.73;;;;;;;;;;5043056;28;20084;-67
2023/04/04 07:49:25;;;;;;;3.42;1.60;;;;;;;;;;5034523;28;20064;-70
2023/04/04 07:51:52;;;;;;;3.28;1.58;;;;;;;;;;5039908;28;20053;-70
2023/04/04 07:54:18;;;;;;;5.57;1.88;;;;;;;;;;5032160;28;20081;-63
2023/04/04 07:56:45;;;;;;;3.38;1.42;;;;;;;;;;5028608;28;20613;-66
2023/04/04 07:59:17;;;;;;;5.88;1.80;;;;;;;;;;5033683;28;20049;-68
2023/04/04 08:01:44;;;;;;;4.03;1.67;;;;;;;;;;5027098;28;20120;-67
2023/04/04 08:04:12;;;;;;;3.75;1.60;;;;;;;;;;5042119;28;20055;-71
2023/04/04 08:06:40;;;;;;;6.78;1.80;;;;;;;;;;5031383;28;20103;-67
2023/04/04 08:09:06;;;;;;;4.43;1.80;;;;;;;;;;5044981;28;20122;-68
2023/04/04 08:11:35;;;;;;;4.35;1.80;;;;;;;;;;5015997;28;20057;-70
2023/04/04 08:14:01;;;;;;;;;;;;;;;;;;5012948;28;20053;-68
2023/04/04 08:16:31;;;;;;;5.13;1.55;;;;;;;;;;5046339;28;19921;-72
2023/04/04 08:18:57;;;;;;;3.60;1.38;;;;;;;;;;5028209;28;20052;-68
2023/04/04 08:21:26;;;;;;;3.88;1.60;;;;;;;;;;5017982;28;20135;-66
2023/04/04 08:23:52;;;;;;;3.75;1.65;;;;;;;;;;5015724;28;20053;-68
2023/04/04 08:26:19;;;;;;;5.40;1.58;;;;;;;;;;5014815;28;20076;-70
2023/04/04 08:28:45;;;;;;;4.60;1.67;;;;;;;;;;5016311;28;20134;-68
2023/04/04 08:31:12;;;;;;;3.90;1.50;;;;;;;;;;5027460;28;20125;-67
2023/04/04 08:33:38;;;;;;;5.28;1.75;;;;;;;;;;5012785;28;20057;-71
2023/04/04 08:36:07;;;;;;;;;;;;;;;;;;4999832;28;20041;-72
2023/04/04 08:38:35;;;;;;;3.17;1.42;;;;;;;;;;4980490;28;20019;-73
2023/04/04 08:41:01;;;;;;;3.78;1.70;;;;;;;;;;5018461;28;20132;-64
2023/04/04 08:43:31;;;;;;;3.85;1.80;;;;;;;;;;5021295;28;20057;-75
2023/04/04 08:45:58;;;;;;;3.50;1.45;;;;;;;;;;5030399;28;20052;-76
2023/04/04 08:48:28;;;;;;;5.88;1.80;;;;;;;;;;5019616;28;20153;-76
2023/04/04 08:50:58;;;;;;;4.05;1.67;;;;;;;;;;5037373;28;20048;-68
2023/04/04 08:53:28;;;;;;;3.63;1.65;;;;;;;;;;5037288;28;20063;-75
2023/04/04 08:55:56;;;;;;;2.87;1.47;;;;;;;;;;5009269;28;20076;-67
2023/04/04 08:58:23;;;;;;;10.25;2.03;;;;;;;;;;4995431;28;20057;-70
2023/04/04 09:00:52;;;;;;;5.03;1.50;;;;;;;;;;5036050;28;21325;-74
2023/04/04 09:03:23;;;;;;;3.40;1.55;;;;;;;;;;5000133;28;20058;-71
2023/04/04 09:05:49;;;;;;;3.58;1.63;;;;;;;;;;5025039;28;20149;-72
2023/04/04 09:08:18;;;;;;;4.43;1.50;;;;;;;;;;5018964;28;20082;-67
2023/04/04 09:10:45;;;;;;;3.08;1.60;;;;;;;;;;5036536;28;20061;-72
2023/04/04 09:13:14;;;;;;;6.40;1.70;;;;;;;;;;5018913;28;20119;-72
2023/04/04 09:15:45;;;;;;;6.32;1.77;;;;;;;;;;5002319;28;20065;-75
2023/04/04 09:18:14;;;;;;;5.05;1.90;;;;;;;;;;4998576;28;20092;-74
2023/04/04 09:20:41;;;;;;;3.47;1.60;;;;;;;;;;4963142;28;20050;-71
2023/04/04 09:23:09;;;;;;;4.90;1.80;;;;;;;;;;4972125;28;20061;-73
2023/04/04 09:25:38;;;;;;;5.03;1.60;;;;;;;;;;4974673;28;20081;-72
2023/04/04 09:28:05;;;;;;;5.53;2.05;;;;;;;;;;5004189;28;20060;-73
2023/04/04 09:30:34;;;;;;;4.60;1.85;;;;;;;;;;5040984;28;20172;-69
2023/04/04 09:33:01;;;;;;;4.22;1.83;;;;;;;;;;5017078;28;20042;-67
2023/04/04 09:35:34;;;;;;;5.65;1.52;;;;;;;;;;4998536;28;20050;-68
2023/04/04 09:38:01;;;;;;;4.18;1.52;;;;;;;;;;5031512;28;20052;-70
2023/04/04 09:40:33;;;;;;;7.90;1.83;;;;;;;;;;5006514;28;20071;-71
2023/04/04 09:43:07;;;;;;;4.20;1.73;;;;;;;;;;5046322;28;20076;-68
2023/04/04 09:45:41;;;;;;;3.75;1.88;;;;;;;;;;4993776;28;20045;-69
2023/04/04 09:48:08;;;;;;;5.03;1.80;;;;;;;;;;5034271;28;20139;-67
2023/04/04 09:50:38;;;;;;;4.10;1.58;;;;;;;;;;5027326;28;20076;-71
2023/04/04 09:53:06;;;;;;;4.78;1.48;;;;;;;;;;5022207;28;20084;-76
2023/04/04 09:55:33;;;;;;;3.50;1.53;;;;;;;;;;4995281;28;20067;-76
2023/04/04 09:58:04;;;;;;;4.07;1.52;;;;;;;;;;5038382;28;20053;-68
2023/04/04 10:00:41;;;;;;;4.40;1.92;;;;;;;;;;5004138;28;20060;-71
2023/04/04 10:03:11;;;;;;;5.75;2.08;;;;;;;;;;5035455;28;20164;-68
2023/04/04 10:05:39;;;;;;;4.70;1.70;;;;;;;;;;5006689;28;20048;-65
2023/04/04 10:08:06;;;;;;;;;;;;;;;;;;5023078;28;20117;-72
2023/04/04 10:10:33;;;;;;;4.55;1.70;;;;;;;;;;5000528;28;19968;-70
2023/04/04 10:13:03;;;;;;;6.53;1.85;;;;;;;;;;5040110;28;20394;-70
2023/04/04 10:15:37;;;;;;;3.72;1.58;;;;;;;;;;4994753;28;20056;-70
2023/04/04 10:18:04;;;;;;;6.15;2.20;;;;;;;;;;5028816;28;20056;-69
2023/04/04 10:20:34;;;;;;;7.00;1.92;;;;;;;;;;5027807;28;20061;-70
2023/04/04 10:23:01;;;;;;;6.72;1.73;;;;;;;;;;5035409;28;20046;-68
2023/04/04 10:25:32;;;;;;;4.93;1.75;;;;;;;;;;5019060;28;20071;-68
2023/04/04 10:27:59;;;;;;;7.00;1.90;;;;;;;;;;5026028;28;20057;-68
2023/04/04 10:30:26;;;;;;;4.22;1.50;;;;;;;;;;5026050;28;20124;-72
2023/04/04 10:32:57;;;;;;;5.80;2.03;;;;;;;;;;5035180;28;20057;-68
2023/04/04 10:35:24;;;;;;;6.93;1.98;;;;;;;;;;5013240;28;20049;-66
2023/04/04 10:37:57;;;;;;;5.80;2.00;;;;;;;;;;5027174;28;20063;-68
2023/04/04 10:40:30;;;;;;;5.10;1.52;;;;;;;;;;5055748;28;20067;-70
2023/04/04 10:42:57;;;;;;;4.82;2.20;;;;;;;;;;5031920;28;20073;-66
2023/04/04 10:45:25;;;;;;;4.03;1.53;;;;;;;;;;5030830;28;20135;-68
2023/04/04 10:47:54;;;;;;;4.55;2.05;;;;;;;;;;5015421;28;20107;-67
2023/04/04 10:50:20;;;;;;;5.47;1.98;;;;;;;;;;5009111;28;20057;-67
2023/04/04 10:52:47;;;;;;;4.97;1.80;;;;;;;;;;5002128;28;20088;-68
2023/04/04 10:55:16;;;;;;;3.95;1.55;;;;;;;;;;5011986;28;20052;-71
2023/04/04 10:57:43;;;;;;;3.97;1.80;;;;;;;;;;5030997;28;20052;-67
2023/04/04 11:00:11;;;;;;;6.22;1.98;;;;;;;;;;5018472;28;20057;-69
2023/04/04 11:02:45;;;;;;;3.92;1.67;;;;;;;;;;5016559;28;20110;-71
2023/04/04 11:05:12;;;;;;;4.50;1.80;;;;;;;;;;5012078;28;20053;-69
2023/04/04 11:07:41;;;;;;;3.35;1.50;;;;;;;;;;5030859;28;20056;-67
2023/04/04 11:10:13;;;;;;;5.32;1.90;;;;;;;;;;5017218;28;20063;-70
2023/04/04 11:12:44;;;;;;;4.00;1.67;;;;;;;;;;5019535;28;20057;-68
2023/04/04 11:15:11;;;;;;;6.22;2.15;;;;;;;;;;5021284;28;20063;-68
2023/04/04 11:17:59;;;;;;;5.72;1.92;;;;;;;;;;5029612;28;20053;-67
2023/04/04 11:20:44;;;;;;;5.40;2.00;;;;;;;;;;5029445;28;20057;-68
2023/04/04 11:23:15;;;;;;;4.80;1.70;;;;;;;;;;5023395;28;20111;-70
2023/04/04 11:25:49;;;;;;;8.35;2.28;;;;;;;;;;4949877;28;20074;-68
2023/04/04 11:28:26;;;;;;;4.03;1.77;;;;;;;;;;5017702;28;20099;-70
2023/04/04 11:31:12;;;;;;;4.88;1.80;;;;;;;;;;5008127;28;20053;-69
2023/04/04 11:33:55;;;;;;;5.25;2.15;;;;;;;;;;5012053;28;20069;-67
2023/04/04 11:36:24;;;;;;;3.80;1.85;;;;;;;;;;4997601;28;20057;-70
2023/04/04 11:38:52;;;;;;;5.45;2.08;;;;;;;;;;5005632;28;20679;-68
2023/04/04 11:41:19;;;;;;;8.23;2.03;;;;;;;;;;5011143;28;20100;-68
2023/04/04 11:43:51;;;;;;;5.95;2.22;;;;;;;;;;5030880;28;20081;-66
2023/04/04 11:46:18;;;;;;;5.70;1.95;;;;;;;;;;5017275;28;20049;-66
2023/04/04 11:48:45;;;;;;;4.15;1.85;;;;;;;;;;5013373;28;20041;-68
2023/04/04 11:51:13;;;;;;;8.10;2.28;;;;;;;;;;5017617;28;20117;-68
2023/04/04 11:53:42;;;;;;;6.35;2.15;;;;;;;;;;5014696;28;20057;-68
2023/04/04 11:56:08;;;;;;;;;;;;;;;;;;5031845;28;20131;-66
2023/04/04 11:58:39;;;;;;;7.40;1.95;;;;;;;;;;5000451;28;19925;-69
2023/04/04 12:01:07;;;;;;;6.53;2.17;;;;;;;;;;5024462;28;20060;-67
2023/04/04 12:03:39;;;;;;;7.55;2.30;;;;;;;;;;5024937;28;20057;-68
2023/04/04 12:06:06;;;;;;;4.65;2.10;;;;;;;;;;4999489;28;20061;-68
2023/04/04 12:08:39;;;;;;;6.10;2.25;;;;;;;;;;5000742;28;20119;-70
2023/04/04 12:11:08;;;;;;;8.40;2.70;;;;;;;;;;5015532;28;20068;-67
2023/04/04 12:13:35;;;;;;;6.57;2.60;;;;;;;;;;5016275;28;20081;-67
2023/04/04 12:16:02;;;;;;;5.57;2.10;;;;;;;;;;4997937;28;20076;-68
2023/04/04 12:18:32;;;;;;;8.25;2.10;;;;;;;;;;5060270;28;20129;-66
2023/04/04 12:20:59;;;;;;;6.15;1.85;;;;;;;;;;5018964;28;20077;-70
2023/04/04 12:23:26;;;;;;;6.18;2.22;;;;;;;;;;5016794;28;20136;-68
2023/04/04 12:25:54;;;;;;;4.38;1.88;;;;;;;;;;5002460;28;20126;-70
2023/04/04 12:28:24;;;;;;;5.60;1.83;;;;;;;;;;5006562;28;20061;-70
2023/04/04 12:30:51;;;;;;;3.05;1.58;;;;;;;;;;5017096;28;20891;-66
2023/04/04 12:33:17;;;;;;;5.85;1.85;;;;;;;;;;4995876;28;20088;-65
2023/04/04 12:35:52;;;;;;;4.97;1.77;;;;;;;;;;4988458;28;20131;-70
2023/04/04 12:38:19;;;;;;;5.95;1.70;;;;;;;;;;5021778;28;20048;-69
2023/04/04 12:40:46;;;;;;;4.53;2.00;;;;;;;;;;5041575;28;20477;-69
2023/04/04 12:43:16;;;;;;;5.20;1.75;;;;;;;;;;5038924;28;20170;-69
2023/04/04 12:45:43;;;;;;;4.90;1.90;;;;;;;;;;5019526;28;20084;-69
2023/04/04 12:48:13;;;;;;;4.32;1.67;;;;;;;;;;5000906;28;20141;-73
2023/04/04 12:50:51;;;;;;;6.57;1.63;;;;;;;;;;5018557;28;20056;-70
2023/04/04 12:53:21;;;;;;;3.72;1.55;;;;;;;;;;5028564;28;20480;-70
2023/04/04 12:55:48;;;;;;;3.67;1.70;;;;;;;;;;5008338;28;20191;-68
2023/04/04 12:58:17;;;;;;;4.38;1.88;;;;;;;;;;5028671;28;20182;-69
2023/04/04 13:00:48;;;;;;;3.83;1.80;;;;;;;;;;5049051;28;20052;-68
2023/04/04 13:03:15;;;;;;;4.25;1.80;;;;;;;;;;5021133;28;20063;-67
2023/04/04 13:05:46;;;;;;;4.00;1.80;;;;;;;;;;5048366;28;20052;-67
2023/04/04 13:08:14;;;;;;;7.72;1.80;;;;;;;;;;5039552;28;20049;-66
2023/04/04 13:10:57;;;;;;;4.83;1.90;;;;;;;;;;5020873;28;20053;-66
2023/04/04 13:13:31;;;;;;;3.90;1.73;;;;;;;;;;5025932;28;20056;-66
2023/04/04 13:16:01;;;;;;;4.55;1.90;;;;;;;;;;4995615;28;20064;-70
2023/04/04 13:18:36;;;;;;;3.55;1.70;;;;;;;;;;5016317;28;20053;-65
2023/04/04 13:21:03;;;;;;;6.55;1.70;;;;;;;;;;5004024;28;20151;-70
2023/04/04 13:23:29;;;;;;;5.88;2.08;;;;;;;;;;5016595;28;20115;-71
2023/04/04 13:25:58;;;;;;;5.90;1.70;;;;;;;;;;4999039;28;20053;-71
2023/04/04 13:28:25;;;;;;;4.57;1.80;;;;;;;;;;5016392;28;20113;-73
2023/04/04 13:30:51;;;;;;;4.00;1.98;;;;;;;;;;5045459;28;20056;-70
2023/04/04 13:33:18;;;;;;;5.18;1.75;;;;;;;;;;5032308;28;20053;-72
2023/04/04 13:35:45;;;;;;;4.40;1.88;;;;;;;;;;5013350;28;20077;-70
2023/04/04 13:38:12;;;;;;;9.27;2.08;;;;;;;;;;5018972;28;20064;-71
2023/04/04 13:40:43;;;;;;;7.05;1.70;;;;;;;;;;5028796;28;20053;-69
2023/04/04 13:43:14;;;;;;;4.47;1.88;;;;;;;;;;5029814;28;20049;-69
2023/04/04 13:45:41;;;;;;;5.22;1.70;;;;;;;;;;5019657;28;20117;-69
2023/04/04 13:48:08;;;;;;;7.15;2.22;;;;;;;;;;5044985;28;20056;-67
2023/04/04 13:50:40;;;;;;;3.85;1.63;;;;;;;;;;5031205;28;20187;-73
2023/04/04 13:53:09;;;;;;;5.18;2.10;;;;;;;;;;5017778;28;20076;-71
2023/04/04 13:55:38;;;;;;;5.03;1.67;;;;;;;;;;5017885;28;20052;-68
2023/04/04 13:58:04;;;;;;;6.35;1.90;;;;;;;;;;5044704;28;20061;-68
2023/04/04 14:00:35;;;;;;;4.35;1.70;;;;;;;;;;5043056;28;20140;-71
2023/04/04 14:03:02;;;;;;;6.47;1.73;;;;;;;;;;5026420;28;20049;-70
2023/04/04 14:05:31;;;;;;;5.57;1.98;;;;;;;;;;5033861;28;20097;-67
2023/04/04 14:07:57;;;;;;;5.35;1.63;;;;;;;;;;5010547;28;20045;-69
2023/04/04 14:10:25;;;;;;;4.35;1.67;;;;;;;;;;5008254;28;20058;-72
2023/04/04 14:12:51;;;;;;;6.90;2.03;;;;;;;;;;5002406;28;20175;-68
2023/04/04 14:15:21;;;;;;;4.82;1.70;;;;;;;;;;5038750;28;20057;-71
2023/04/04 14:17:49;;;;;;;5.13;1.63;;;;;;;;;;5010159;28;20061;-71
2023/04/04 14:20:15;;;;;;;4.78;1.63;;;;;;;;;;5015665;28;20146;-71
2023/04/04 14:22:45;;;;;;;5.30;1.80;;;;;;;;;;5011198;28;20064;-69
2023/04/04 14:25:11;;;;;;;3.95;1.58;;;;;;;;;;5015260;28;20069;-71
2023/04/04 14:27:38;;;;;;;3.63;1.60;;;;;;;;;;5017522;28;20149;-69
2023/04/04 14:30:05;;;;;;;6.80;1.77;;;;;;;;;;5015820;28;20049;-69
2023/04/04 14:32:31;;;;;;;4.60;2.10;;;;;;;;;;5007002;28;20061;-70
2023/04/04 14:34:59;;;;;;;3.90;1.70;;;;;;;;;;4993724;28;20142;-69
2023/04/04 14:37:25;;;;;;;3.03;1.57;;;;;;;;;;5011236;28;20045;-68
2023/04/04 14:39:52;;;;;;;5.25;1.70;;;;;;;;;;5022319;28;20313;-67
2023/04/04 14:42:19;;;;;;;4.05;1.77;;;;;;;;;;5023897;28;20057;-68
2023/04/04 14:44:45;;;;;;;4.40;1.60;;;;;;;;;;4987552;28;20236;-67
2023/04/04 14:47:12;;;;;;;6.47;1.75;;;;;;;;;;5006689;28;20064;-67
2023/04/04 14:49:38;;;;;;;4.47;1.80;;;;;;;;;;5018355;28;20617;-70
2023/04/04 14:52:09;;;;;;;3.17;1.65;;;;;;;;;;5007876;28;20053;-68